Time;durP1;ratioP1;P1;durP2;ratioP2;P2;SDS_P1;SDS_P2;PMS_P1;PMS_P2;Temp;Humidity;BMP_temperature;BMP_pressure;BME280_temperature;BME280_humidity;BME280_pressure;Samples;Min_cycle;Max_cycle;Signal;HPM_P1;HPM_P2
2023/04/15 00:00:11;;;;;;;18.15;3.83;;;;;;;13.62;48.38;99919.38;4961998;28;20128;-80
2023/04/15 00:02:43;;;;;;;21.27;3.33;;;;;;;14.08;48.61;99999.56;4980230;28;20124;-81
2023/04/15 00:05:16;;;;;;;17.73;4.10;;;;;;;13.64;48.38;99906.69;4959613;28;20201;-82
2023/04/15 00:07:50;;;;;;;10.80;3.17;;;;;;;14.20;48.33;99997.31;4967937;28;20057;-83
2023/04/15 00:10:24;;;;;;;15.20;2.92;;;;;;;14.01;48.75;99978.06;4955618;28;20129;-84
2023/04/15 00:12:54;;;;;;;23.00;3.47;;;;;;;14.06;48.99;99996.25;4966593;28;20134;-83
2023/04/15 00:15:22;;;;;;;22.45;3.90;;;;;;;14.12;48.94;99992.84;4957290;28;20042;-82
2023/04/15 00:17:55;;;;;;;14.00;2.90;;;;;;;12.65;49.07;99766.78;4971834;28;20690;-83
2023/04/15 00:20:22;;;;;;;10.15;3.97;;;;;;;14.06;48.93;99981.06;4963638;28;20141;-83
2023/04/15 00:22:54;;;;;;;20.25;3.35;;;;;;;13.53;49.00;99897.25;4963651;28;20074;-83
2023/04/15 00:25:35;;;;;;;19.73;3.35;;;;;;;13.59;49.33;99907.22;4968618;28;20137;-82
2023/04/15 00:28:07;;;;;;;16.80;3.70;;;;;;;14.00;49.81;99975.56;4967410;28;20515;-83
2023/04/15 00:30:38;;;;;;;11.77;3.60;;;;;;;13.88;49.77;99935.09;4964403;28;20255;-82
2023/04/15 00:33:05;;;;;;;23.20;3.95;;;;;;;14.06;49.95;99974.88;4970394;28;20403;-80
2023/04/15 00:35:36;;;;;;;13.77;2.50;;;;;;;14.16;50.03;99967.50;4963093;28;20479;-82
2023/04/15 00:38:07;;;;;;;23.58;3.90;;;;;;;14.12;50.30;99976.84;4960452;28;20234;-81
2023/04/15 00:40:40;;;;;;;9.93;2.90;;;;;;;13.45;50.36;99865.28;4986185;28;20050;-80
2023/04/15 00:43:15;;;;;;;25.58;3.78;;;;;;;13.97;50.76;99975.94;4970973;28;20050;-82
2023/04/15 00:45:42;;;;;;;19.13;3.90;;;;;;;13.96;51.59;99979.63;4941618;28;20793;-83
2023/04/15 00:51:00;;;;;;;18.05;3.90;;;;;;;13.79;51.65;99953.00;4948218;28;20292;-82
2023/04/15 00:53:30;;;;;;;16.30;3.63;;;;;;;13.83;52.25;99967.63;4946083;28;20051;-81
2023/04/15 00:56:06;;;;;;;17.13;3.35;;;;;;;13.61;52.14;99939.88;4951988;28;20364;-80
2023/04/15 00:58:40;;;;;;;12.02;2.70;;;;;;;13.73;53.17;99980.34;4962443;28;20050;-80
2023/04/15 01:01:07;;;;;;;18.75;3.60;;;;;;;13.67;53.35;100002.38;4962296;28;20062;-82
2023/04/15 01:03:42;;;;;;;12.85;3.65;;;;;;;13.60;53.71;99998.72;4967528;28;20535;-81
2023/04/15 01:06:16;;;;;;;13.45;2.72;;;;;;;13.55;54.26;99999.25;4962828;28;20408;-82
2023/04/15 01:08:48;;;;;;;16.98;3.58;;;;;;;13.38;54.48;99974.44;4967273;28;20157;-81
2023/04/15 01:11:16;;;;;;;17.67;3.75;;;;;;;13.49;54.65;99996.41;4980932;28;20047;-82
2023/04/15 01:13:42;;;;;;;19.25;3.42;;;;;;;12.88;54.51;99900.88;4966351;28;20078;-84
2023/04/15 01:16:10;;;;;;;13.40;2.67;;;;;;;13.56;54.50;100010.72;4969851;28;20054;-83
2023/04/15 01:18:38;;;;;;;17.75;3.85;;;;;;;13.25;55.15;99979.41;4965934;28;20042;-82
2023/04/15 01:21:08;;;;;;;13.63;3.35;;;;;;;13.38;55.14;100025.09;4969197;28;20133;-82
2023/04/15 01:23:37;;;;;;;12.60;2.95;;;;;;;13.41;55.35;100023.94;4960122;28;20278;-83
2023/04/15 01:26:06;;;;;;;12.38;3.00;;;;;;;13.46;55.59;100027.75;4959509;28;20480;-83
2023/04/15 01:28:45;;;;;;;11.43;2.45;;;;;;;13.33;56.66;100026.63;4966611;28;20046;-82
2023/04/15 01:31:21;;;;;;;13.77;3.30;;;;;;;13.20;56.39;100022.59;4960879;28;20084;-81
2023/04/15 01:33:48;;;;;;;11.77;3.35;;;;;;;13.25;56.60;100024.75;4961887;28;20157;-82
2023/04/15 01:36:15;;;;;;;17.40;3.42;;;;;;;13.14;56.24;100017.09;4958263;28;20046;-82
2023/04/15 01:38:41;;;;;;;17.27;3.58;;;;;;;13.05;56.50;100001.09;4965889;28;20132;-80
2023/04/15 01:41:08;;;;;;;13.90;2.83;;;;;;;13.25;55.28;100014.06;4961501;28;20120;-80
2023/04/15 01:43:38;;;;;;;13.13;2.95;;;;;;;13.16;56.00;100010.59;4966571;28;20046;-79
2023/04/15 01:46:05;;;;;;;7.85;3.20;;;;;;;13.28;56.38;100036.94;4968167;28;20340;-82
2023/04/15 01:48:58;;;;;;;12.85;3.03;;;;;;;13.25;56.05;100030.06;4978538;28;20288;-82
2023/04/15 01:51:34;;;;;;;12.43;2.70;;;;;;;13.16;56.33;100025.75;4964133;28;20440;-83
2023/04/15 01:54:01;;;;;;;10.23;2.80;;;;;;;13.21;56.23;100031.44;4960179;28;20125;-83
2023/04/15 01:56:28;;;;;;;9.23;2.65;;;;;;;13.18;56.59;100034.41;4964746;28;20490;-81
2023/04/15 01:58:55;;;;;;;12.18;2.80;;;;;;;13.15;56.96;100032.06;4963133;28;20050;-82
2023/04/15 02:01:21;;;;;;;11.13;2.50;;;;;;;12.81;57.13;99991.25;4978909;28;20497;-83
2023/04/15 02:03:48;;;;;;;13.88;3.10;;;;;;;13.15;56.84;100034.75;4957861;28;20085;-82
2023/04/15 02:06:15;;;;;;;12.80;3.05;;;;;;;13.00;56.42;100022.09;4969296;28;20484;-82
2023/04/15 02:08:47;;;;;;;6.82;2.72;;;;;;;12.73;57.26;99983.28;4963674;28;20462;-82
2023/04/15 02:11:14;;;;;;;9.50;2.75;;;;;;;12.90;57.15;100010.75;4967108;28;20717;-82
2023/04/15 02:13:41;;;;;;;10.48;3.10;;;;;;;12.93;57.00;100007.75;4969612;28;20119;-83
2023/04/15 02:16:16;;;;;;;7.20;2.67;;;;;;;13.08;57.78;100039.06;4977117;28;20049;-80
2023/04/15 02:18:44;;;;;;;7.70;2.08;;;;;;;13.01;57.99;100038.91;4984487;28;20042;-82
2023/04/15 02:21:12;;;;;;;7.43;2.20;;;;;;;13.10;58.09;100050.41;4977813;28;20082;-82
2023/04/15 02:23:38;;;;;;;7.03;2.17;;;;;;;13.05;57.35;100030.41;4986225;28;20160;-82
2023/04/15 02:26:05;;;;;;;8.57;2.20;;;;;;;13.15;57.24;100043.56;4970451;28;20498;-83
2023/04/15 02:28:32;;;;;;;5.95;2.20;;;;;;;13.12;58.02;100048.41;4962020;28;20046;-82
2023/04/15 02:31:00;;;;;;;12.55;2.08;;;;;;;12.93;58.30;100021.06;4982097;28;20137;-82
2023/04/15 02:33:27;;;;;;;4.78;2.15;;;;;;;13.13;57.73;100048.25;4969659;28;20529;-82
2023/04/15 02:35:58;;;;;;;9.18;2.15;;;;;;;13.01;58.77;100033.56;4971519;28;20096;-81
2023/04/15 02:38:24;;;;;;;3.42;1.73;;;;;;;12.88;58.53;100012.75;4961408;28;20050;-82
2023/04/15 02:40:57;;;;;;;6.90;1.95;;;;;;;12.94;58.93;100033.41;4967971;28;20068;-81
2023/04/15 02:43:24;;;;;;;10.27;2.10;;;;;;;12.94;58.90;100033.41;4956534;28;20100;-80
2023/04/15 02:45:55;;;;;;;6.43;1.58;;;;;;;12.90;59.20;100026.75;4986581;28;20149;-82
2023/04/15 02:48:24;;;;;;;1.85;1.20;;;;;;;13.02;58.49;100030.75;4984121;28;20053;-81
2023/04/15 02:50:50;;;;;;;4.18;1.27;;;;;;;12.45;58.30;99940.16;4978059;28;20230;-82
2023/04/15 02:53:23;;;;;;;1.92;1.00;;;;;;;13.13;58.15;100031.41;4977301;28;20050;-82
2023/04/15 02:55:58;;;;;;;3.92;1.23;;;;;;;13.07;58.40;100026.75;4973588;28;20045;-81
2023/04/15 02:58:25;;;;;;;1.27;0.93;;;;;;;13.07;58.74;100032.09;4978490;28;20057;-82
2023/04/15 03:00:52;;;;;;;3.40;1.20;;;;;;;12.94;58.36;100005.94;4964330;28;20484;-82
2023/04/15 03:03:21;;;;;;;3.90;1.33;;;;;;;12.85;57.89;99986.44;4958948;28;20285;-82
2023/04/15 03:05:52;;;;;;;3.40;1.05;;;;;;;13.00;57.77;99998.09;4976650;28;20583;-82
2023/04/15 03:08:23;;;;;;;4.10;1.00;;;;;;;13.10;58.07;100021.91;4958750;28;20673;-82
2023/04/15 03:10:51;;;;;;;7.82;1.35;;;;;;;13.12;57.84;100027.09;4964054;28;20507;-83
2023/04/15 03:13:18;;;;;;;4.05;1.10;;;;;;;12.49;58.62;99944.16;4967389;28;20070;-81
2023/04/15 03:15:51;;;;;;;5.65;1.50;;;;;;;12.82;58.81;100000.94;4979279;28;20701;-83
2023/04/15 03:18:32;;;;;;;3.35;1.33;;;;;;;12.79;59.49;100013.75;4962872;28;20488;-83
2023/04/15 03:20:59;;;;;;;4.13;1.60;;;;;;;12.82;59.64;100029.41;4968556;28;20051;-83
2023/04/15 03:23:26;;;;;;;4.18;1.27;;;;;;;12.64;59.03;100010.06;4948726;28;20488;-82
2023/04/15 03:26:00;;;;;;;2.20;0.90;;;;;;;12.88;58.62;100010.09;4934835;28;20116;-81
2023/04/15 03:28:42;;;;;;;3.45;1.17;;;;;;;12.93;58.75;100036.22;4912771;28;20047;-82
2023/04/15 03:31:15;;;;;;;4.13;1.10;;;;;;;12.80;58.46;100010.91;4920452;28;20401;-81
2023/04/15 03:33:49;;;;;;;2.55;0.88;;;;;;;12.69;58.77;99995.25;4898520;28;20574;-82
2023/04/15 03:36:18;;;;;;;3.25;1.02;;;;;;;12.90;58.32;100026.75;4899144;28;20216;-79
2023/04/15 03:38:54;;;;;;;3.42;1.33;;;;;;;12.86;58.48;100030.72;4881483;28;20110;-81
2023/04/15 03:41:36;;;;;;;2.45;1.08;;;;;;;12.90;58.54;100025.91;4892754;28;20306;-82
2023/04/15 03:44:10;;;;;;;5.50;0.90;;;;;;;12.92;58.52;100031.91;4917449;28;20297;-80
2023/04/15 03:46:42;;;;;;;2.42;0.90;;;;;;;13.05;57.77;100022.41;4934546;28;20510;-82
2023/04/15 03:49:13;;;;;;;2.58;0.80;;;;;;;12.87;57.23;99979.13;4904270;28;20343;-81
2023/04/15 03:51:45;;;;;;;2.75;0.82;;;;;;;13.20;56.56;100027.06;4898197;28;20085;-81
2023/04/15 03:54:15;;;;;;;4.55;0.93;;;;;;;12.86;57.03;99982.78;4905032;28;20070;-82
2023/04/15 03:56:50;;;;;;;2.85;0.90;;;;;;;12.83;57.49;100009.75;4895450;28;20072;-81
2023/04/15 03:59:25;;;;;;;1.73;0.80;;;;;;;12.94;57.68;100022.75;4916967;28;20088;-82
2023/04/15 04:01:59;;;;;;;1.05;0.85;;;;;;;12.81;56.98;100001.09;4917865;28;20135;-82
2023/04/15 04:04:36;;;;;;;1.92;0.88;;;;;;;12.86;57.84;100028.06;4944718;28;20117;-82
2023/04/15 04:07:04;;;;;;;2.78;0.70;;;;;;;12.32;58.01;99959.25;4942296;28;20559;-81
2023/04/15 04:09:40;;;;;;;1.27;0.73;;;;;;;12.93;57.18;100029.06;4934630;28;20050;-81
2023/04/15 04:12:18;;;;;;;;;;;;;;;12.90;57.54;100042.72;4916941;28;20243;-81
2023/04/15 04:14:51;;;;;;;1.50;0.45;;;;;;;12.68;57.06;100028.22;4924817;28;20478;-82
2023/04/15 04:17:36;;;;;;;0.68;0.60;;;;;;;12.87;56.63;100037.75;4924940;28;20443;-83
2023/04/15 04:20:13;;;;;;;2.05;0.75;;;;;;;12.67;57.65;100025.72;4928791;28;20870;-81
2023/04/15 04:22:51;;;;;;;1.35;0.80;;;;;;;12.53;56.82;100008.56;4934786;28;20252;-82
2023/04/15 04:25:47;;;;;;;1.33;0.75;;;;;;;12.30;56.81;99979.88;4940763;28;20053;-82
2023/04/15 04:28:28;;;;;;;1.95;0.82;;;;;;;12.74;57.48;100048.03;4941484;28;20248;-82
2023/04/15 04:31:06;;;;;;;3.83;0.82;;;;;;;12.79;56.42;100045.69;4928098;28;20523;-81
2023/04/15 04:33:38;;;;;;;5.00;1.00;;;;;;;12.63;56.29;100029.72;4928864;28;20431;-81
2023/04/15 04:36:12;;;;;;;2.15;0.80;;;;;;;12.70;56.72;100057.38;4910799;28;20579;-82
2023/04/15 04:39:03;;;;;;;1.95;0.68;;;;;;;12.53;56.72;100028.03;4914646;28;20050;-81
2023/04/15 04:45:26;;;;;;;8.13;1.13;;;;;;;12.29;57.31;100012.00;4970884;28;20057;-81
2023/04/15 04:47:59;;;;;;;1.85;0.90;;;;;;;12.56;57.29;100059.66;4978865;28;20105;-83
2023/04/15 04:50:35;;;;;;;4.25;0.85;;;;;;;12.44;57.01;100026.34;4982617;28;20054;-82
2023/04/15 04:53:17;;;;;;;3.50;1.23;;;;;;;12.60;56.70;100057.50;4978599;28;20130;-81
2023/04/15 04:55:54;;;;;;;5.68;0.98;;;;;;;12.46;57.18;100044.81;4966051;28;20050;-79
2023/04/15 04:58:24;;;;;;;2.65;0.90;;;;;;;11.82;56.90;99940.63;4971373;28;20108;-80
2023/04/15 05:00:53;;;;;;;7.13;1.38;;;;;;;12.63;56.28;100056.34;4975978;28;20050;-80
2023/04/15 05:03:21;;;;;;;3.95;1.30;;;;;;;12.34;56.19;100010.50;4973550;28;20129;-82
2023/04/15 05:05:49;;;;;;;1.75;0.90;;;;;;;12.63;57.01;100067.81;4982735;28;20170;-81
2023/04/15 05:08:23;;;;;;;3.17;0.80;;;;;;;12.55;57.02;100059.81;4980653;28;20081;-79
2023/04/15 05:10:52;;;;;;;5.15;1.10;;;;;;;12.65;56.50;100075.66;4981679;28;20058;-82
2023/04/15 05:13:22;;;;;;;5.10;1.15;;;;;;;12.49;56.24;100052.47;4980857;28;20044;-80
2023/04/15 05:15:57;;;;;;;3.45;0.60;;;;;;;12.48;55.95;100027.69;4980249;28;20046;-80
2023/04/15 05:18:28;;;;;;;3.45;0.75;;;;;;;12.76;56.13;100072.66;4984274;28;20108;-82
2023/04/15 05:20:58;;;;;;;2.63;1.00;;;;;;;12.74;56.05;100080.00;4982993;28;20054;-82
2023/04/15 05:23:27;;;;;;;4.82;0.82;;;;;;;12.59;56.23;100066.47;4977890;28;20076;-82
2023/04/15 05:26:02;;;;;;;2.13;0.57;;;;;;;12.57;55.52;100047.16;4978687;28;20793;-83
2023/04/15 05:28:35;;;;;;;2.65;1.10;;;;;;;12.72;56.35;100071.31;4980393;28;20066;-80
2023/04/15 05:31:02;;;;;;;1.40;0.70;;;;;;;12.46;55.71;100045.66;4994009;28;20139;-80
2023/04/15 05:33:57;;;;;;;2.15;0.82;;;;;;;12.60;55.93;100053.00;4977463;28;20057;-81
2023/04/15 05:36:38;;;;;;;1.85;0.60;;;;;;;12.60;55.94;100062.84;4951999;28;20055;-81
2023/04/15 05:39:22;;;;;;;1.20;0.70;;;;;;;12.84;55.54;100086.03;4944495;28;20047;-81
2023/04/15 05:41:53;;;;;;;2.60;1.27;;;;;;;12.67;55.34;100047.00;4980911;28;20061;-79
2023/04/15 05:44:21;;;;;;;0.60;0.50;;;;;;;12.29;56.02;99993.38;4997596;28;20050;-81
2023/04/15 05:46:48;;;;;;;1.02;0.80;;;;;;;12.67;55.64;100049.69;4989812;28;20112;-81
2023/04/15 05:49:20;;;;;;;3.42;0.85;;;;;;;12.99;55.45;100084.38;4982747;28;20133;-80
2023/04/15 05:51:53;;;;;;;3.85;0.95;;;;;;;12.96;55.31;100090.03;4979446;28;20046;-80
2023/04/15 05:54:28;;;;;;;2.60;1.33;;;;;;;12.87;55.39;100079.53;4996428;28;20088;-83
2023/04/15 05:56:56;;;;;;;1.77;0.80;;;;;;;12.99;54.77;100060.41;4955032;28;20046;-81
2023/04/15 05:59:32;;;;;;;4.63;1.08;;;;;;;11.78;54.57;99878.97;4960420;28;20054;-81
2023/04/15 06:01:59;;;;;;;3.22;1.02;;;;;;;12.93;54.85;100058.38;4978394;28;20310;-81
2023/04/15 06:04:26;;;;;;;4.10;0.95;;;;;;;13.31;54.29;100093.41;4958320;28;20050;-81
2023/04/15 06:06:53;;;;;;;4.13;1.10;;;;;;;13.12;54.39;100072.41;4964298;28;20054;-81
2023/04/15 06:09:20;;;;;;;3.05;0.85;;;;;;;13.45;53.62;100095.41;4963922;28;20471;-81
2023/04/15 06:11:55;;;;;;;1.88;0.98;;;;;;;13.40;54.16;100097.75;4953754;28;20274;-81
2023/04/15 06:14:23;;;;;;;1.25;0.85;;;;;;;13.50;54.15;100102.09;4952817;28;20046;-82
2023/04/15 06:17:07;;;;;;;3.67;1.10;;;;;;;13.44;54.71;100104.41;4944220;28;20125;-80
2023/04/15 06:19:35;;;;;;;4.70;1.20;;;;;;;12.65;54.08;99954.00;4961783;28;20488;-79
2023/04/15 06:22:02;;;;;;;4.28;0.98;;;;;;;13.13;53.71;100031.41;4966841;28;20105;-81
2023/04/15 06:24:33;;;;;;;4.35;1.10;;;;;;;13.25;54.16;100062.91;4962441;28;20455;-81
2023/04/15 06:27:08;;;;;;;3.83;1.33;;;;;;;13.33;53.86;100053.28;4949928;28;20057;-79
2023/04/15 06:29:42;;;;;;;4.28;1.00;;;;;;;13.63;54.07;100099.72;4967925;28;20156;-81
2023/04/15 06:32:22;;;;;;;2.15;0.80;;;;;;;13.50;53.82;100078.09;4970232;28;20391;-81
2023/04/15 06:34:58;;;;;;;2.78;1.08;;;;;;;13.73;53.55;100104.88;4962548;28;20329;-82
2023/04/15 06:37:28;;;;;;;3.30;0.90;;;;;;;13.66;53.37;100072.72;4964141;28;20056;-80
2023/04/15 06:39:55;;;;;;;4.72;1.13;;;;;;;12.59;53.59;99902.22;4968923;28;20049;-80
2023/04/15 06:42:22;;;;;;;1.13;0.88;;;;;;;13.86;53.79;100130.06;4960753;28;20981;-83
2023/04/15 06:44:53;;;;;;;3.00;1.17;;;;;;;13.38;53.24;100030.44;4965130;28;20061;-82
2023/04/15 06:47:21;;;;;;;1.95;0.90;;;;;;;13.84;53.06;100105.38;4986461;28;20058;-80
2023/04/15 06:50:06;;;;;;;3.72;1.10;;;;;;;14.03;53.15;100130.00;4967515;28;20124;-79
2023/04/15 06:52:35;;;;;;;7.93;1.20;;;;;;;13.62;53.35;100069.56;4965752;28;20054;-78
2023/04/15 06:55:02;;;;;;;3.25;0.93;;;;;;;13.73;52.91;100087.03;4964456;28;20062;-78
2023/04/15 06:57:32;;;;;;;5.15;1.33;;;;;;;13.62;52.91;100085.56;4960412;28;20043;-78
2023/04/15 07:00:01;;;;;;;4.57;1.30;;;;;;;13.87;53.64;100125.53;4960606;28;20054;-78
2023/04/15 07:02:28;;;;;;;3.42;1.10;;;;;;;13.95;53.72;100127.38;4964340;28;20062;-79
2023/04/15 07:05:05;;;;;;;2.05;0.82;;;;;;;13.74;54.35;100114.53;4958876;28;20058;-77
2023/04/15 07:07:37;;;;;;;5.88;1.23;;;;;;;13.78;53.66;100105.22;4935682;28;20050;-78
2023/04/15 07:10:28;;;;;;;1.20;0.90;;;;;;;13.86;53.56;100114.03;4960230;28;20045;-79
2023/04/15 07:12:56;;;;;;;6.40;1.33;;;;;;;13.79;53.60;100097.06;4957294;28;20038;-79
2023/04/15 07:15:22;;;;;;;4.45;1.00;;;;;;;14.11;53.39;100127.34;4958539;28;20061;-79
2023/04/15 07:17:52;;;;;;;2.40;0.88;;;;;;;14.13;53.30;100120.00;4978707;28;20053;-80
2023/04/15 07:20:22;;;;;;;2.17;1.20;;;;;;;14.09;53.66;100140.00;4979436;28;20058;-82
2023/04/15 07:22:48;;;;;;;3.42;0.75;;;;;;;13.84;53.63;100097.38;4961066;28;20556;-82
2023/04/15 07:25:16;;;;;;;2.00;0.90;;;;;;;13.50;53.33;100019.44;4959284;28;20712;-82
2023/04/15 07:27:52;;;;;;;6.05;1.17;;;;;;;13.84;52.97;100062.69;4956721;28;20050;-82
2023/04/15 07:30:28;;;;;;;2.63;0.90;;;;;;;14.29;52.74;100132.44;4958116;28;20073;-82
2023/04/15 07:33:08;;;;;;;5.30;0.95;;;;;;;13.72;53.26;100045.38;4954250;28;20074;-81
2023/04/15 07:35:42;;;;;;;1.70;0.90;;;;;;;14.56;52.04;100139.22;4968118;28;20504;-82
2023/04/15 07:38:14;;;;;;;3.78;0.80;;;;;;;14.54;51.76;100138.56;4960131;28;20081;-81
2023/04/15 07:40:43;;;;;;;2.17;1.00;;;;;;;14.77;51.09;100135.13;4965524;28;20046;-83
2023/04/15 07:43:12;;;;;;;5.88;1.23;;;;;;;14.83;51.10;100137.06;4963591;28;20281;-82
2023/04/15 07:45:39;;;;;;;1.83;0.70;;;;;;;14.63;51.21;100121.47;4965386;28;20047;-82
2023/04/15 07:48:18;;;;;;;4.03;1.30;;;;;;;14.66;51.35;100125.63;4965587;28;20500;-80
2023/04/15 07:50:45;;;;;;;2.53;0.88;;;;;;;14.68;51.61;100135.16;4953807;28;20066;-80
2023/04/15 07:53:32;;;;;;;6.38;1.25;;;;;;;14.67;51.24;100108.63;4962726;28;20042;-81
2023/04/15 07:56:00;;;;;;;2.00;1.30;;;;;;;14.84;50.91;100117.38;4972036;28;20210;-81
2023/04/15 07:58:29;;;;;;;1.48;0.93;;;;;;;14.47;50.97;100073.47;4968541;28;20057;-81
2023/04/15 08:00:56;;;;;;;1.40;0.85;;;;;;;14.80;51.31;100124.06;4962591;28;20054;-79
2023/04/15 08:03:24;;;;;;;2.58;1.27;;;;;;;13.97;50.92;99970.59;4968502;28;20303;-80
2023/04/15 08:05:55;;;;;;;2.22;0.60;;;;;;;15.09;49.85;100126.06;4983759;28;20050;-81
2023/04/15 08:08:22;;;;;;;1.70;1.10;;;;;;;15.09;50.53;100140.25;4961486;28;20539;-81
2023/04/15 08:10:49;;;;;;;2.00;1.00;;;;;;;15.22;49.59;100120.13;4964732;28;20050;-81
2023/04/15 08:13:18;;;;;;;6.15;1.25;;;;;;;15.09;50.01;100110.03;4958373;28;20613;-82
2023/04/15 08:16:21;;;;;;;2.63;1.02;;;;;;;15.12;49.97;100117.69;4943396;28;20085;-84
2023/04/15 08:18:51;;;;;;;2.58;1.02;;;;;;;15.25;50.24;100141.19;4908526;28;20626;-82
2023/04/15 08:21:19;;;;;;;1.35;0.75;;;;;;;15.36;50.08;100140.75;4941172;28;20065;-82
2023/04/15 08:23:50;;;;;;;2.45;0.90;;;;;;;15.34;49.81;100145.44;4966353;28;20057;-81
2023/04/15 08:26:28;;;;;;;1.95;0.85;;;;;;;15.44;49.23;100138.03;4960861;28;20047;-80
2023/04/15 08:29:05;;;;;;;4.05;1.10;;;;;;;15.44;49.35;100138.03;4978808;28;20053;-81
2023/04/15 08:31:42;;;;;;;2.20;0.73;;;;;;;15.28;49.69;100114.91;4948961;28;20046;-83
2023/04/15 08:34:11;;;;;;;6.10;0.90;;;;;;;15.30;49.36;100109.38;4952096;28;20081;-82
2023/04/15 08:36:46;;;;;;;2.13;1.10;;;;;;;15.47;49.27;100136.84;4967098;28;20567;-82
2023/04/15 08:39:20;;;;;;;5.53;1.15;;;;;;;15.57;49.42;100132.06;4973389;28;20570;-81
2023/04/15 08:42:21;;;;;;;2.78;0.90;;;;;;;14.87;48.93;99991.41;4963906;28;20267;-81
2023/04/15 08:44:55;;;;;;;4.43;0.80;;;;;;;15.25;49.45;100052.94;4946923;28;20223;-80
2023/04/15 08:47:34;;;;;;;2.35;1.10;;;;;;;14.68;49.45;99968.69;4939570;28;20449;-81
2023/04/15 08:50:17;;;;;;;1.95;0.73;;;;;;;15.46;49.36;100095.88;4958568;28;20066;-81
2023/04/15 08:53:09;;;;;;;3.03;0.68;;;;;;;15.24;49.31;100053.94;4928007;28;20326;-84
2023/04/15 08:55:53;;;;;;;3.00;1.15;;;;;;;15.82;49.38;100124.66;4904419;28;20585;-81
2023/04/15 08:58:42;;;;;;;0.77;0.73;;;;;;;15.99;48.82;100122.66;4906035;28;20317;-83
2023/04/15 09:01:21;;;;;;;2.90;1.13;;;;;;;15.65;48.72;100073.13;4895115;28;20039;-83
2023/04/15 09:04:06;;;;;;;3.13;1.30;;;;;;;15.98;48.73;100105.78;4911435;28;20054;-82
2023/04/15 09:06:51;;;;;;;2.63;1.10;;;;;;;16.05;48.80;100123.78;4930552;28;20305;-82
2023/04/15 09:09:26;;;;;;;1.00;0.90;;;;;;;16.09;48.96;100106.31;4905202;28;20046;-82
2023/04/15 09:12:00;;;;;;;2.88;1.35;;;;;;;15.91;48.69;100062.00;4907690;28;20056;-82
2023/04/15 09:14:34;;;;;;;;;;;;;;;15.81;49.58;100050.75;4944984;28;20534;-84
2023/04/15 09:17:25;;;;;;;6.15;1.85;;;;;;;16.37;50.18;100120.72;4894406;28;19929;-84
2023/04/15 09:20:23;;;;;;;;;;;;;;;16.41;49.55;100121.19;4918507;28;20346;-83
2023/04/15 09:23:12;;;;;;;2.10;1.70;;;;;;;16.35;49.08;100101.31;4925871;28;20535;-83
2023/04/15 09:25:45;;;;;;;6.53;1.70;;;;;;;16.45;49.12;100107.22;4947254;28;20130;-82
2023/04/15 09:28:34;;;;;;;4.85;1.80;;;;;;;15.67;49.43;99942.66;4942969;28;20046;-83
2023/04/15 09:31:23;;;;;;;;;;;;;;;;;;;;;
2023/04/15 09:34:04;;;;;;;3.15;1.40;;;;;;;17.00;49.11;100098.81;4940065;28;20234;-83
2023/04/15 09:36:46;;;;;;;4.53;1.67;;;;;;;17.17;48.80;100110.97;4953684;28;20751;-83
2023/04/15 09:39:15;;;;;;;4.90;1.80;;;;;;;17.19;48.93;100103.56;4963675;28;20116;-81
2023/04/15 09:42:09;;;;;;;5.85;1.92;;;;;;;17.45;48.49;100112.84;4962408;28;20346;-81
2023/04/15 09:44:37;;;;;;;5.05;1.67;;;;;;;17.55;48.26;100107.16;4956064;28;20485;-82
2023/04/15 09:47:04;;;;;;;4.55;1.27;;;;;;;17.22;47.49;100043.31;4951721;28;20046;-84
2023/04/15 09:49:37;;;;;;;2.90;1.20;;;;;;;17.61;47.44;100076.88;4961174;28;20116;-82
2023/04/15 09:52:24;;;;;;;7.10;2.33;;;;;;;17.80;47.26;100088.78;4942862;28;20133;-83
2023/04/15 09:54:55;;;;;;;2.85;1.30;;;;;;;17.76;47.03;100076.75;4932097;28;20052;-83
2023/04/15 09:58:08;;;;;;;4.60;1.83;;;;;;;17.94;46.79;100080.63;4934172;28;20054;-83
2023/04/15 10:00:27;;;;;;;7.03;1.75;;;;;;;18.01;46.57;100075.31;4916381;28;20054;-81
2023/04/15 10:02:58;;;;;;;6.03;2.13;;;;;;;18.17;46.15;100074.16;4941553;28;20069;-83
2023/04/15 10:05:30;;;;;;;3.38;1.80;;;;;;;18.21;45.40;100058.47;4928438;28;20058;-84
2023/04/15 10:08:04;;;;;;;10.68;2.13;;;;;;;18.55;45.21;100096.03;4957018;28;20054;-83
2023/04/15 10:10:48;;;;;;;;;;;;;;;18.69;44.81;100101.44;4912945;28;20488;-83
2023/04/15 10:13:36;;;;;;;9.70;2.08;;;;;;;18.76;45.01;100083.50;4934878;28;19925;-83
2023/04/15 10:16:15;;;;;;;4.93;2.30;;;;;;;19.01;44.11;100091.84;4930368;28;20772;-82
2023/04/15 10:18:55;;;;;;;4.10;2.10;;;;;;;18.93;44.44;100076.75;4905827;28;20382;-83
2023/04/15 10:21:34;;;;;;;5.30;1.50;;;;;;;18.95;43.92;100063.91;4916734;28;20055;-82
2023/04/15 10:24:09;;;;;;;13.60;2.25;;;;;;;19.02;43.82;100049.63;4937422;28;20484;-81
2023/04/15 10:26:37;;;;;;;8.98;2.72;;;;;;;18.68;43.35;99986.88;4951243;28;20125;-83
2023/04/15 10:29:05;;;;;;;6.90;2.13;;;;;;;19.50;43.34;100084.44;4956503;28;20509;-82
2023/04/15 10:31:32;;;;;;;5.05;2.42;;;;;;;19.53;42.42;100062.50;4955878;28;20435;-81
2023/04/15 10:34:04;;;;;;;5.50;2.15;;;;;;;19.74;42.41;100086.53;4954023;28;20394;-80
2023/04/15 10:36:35;;;;;;;11.32;3.15;;;;;;;19.70;42.53;100073.69;4953196;28;20440;-83
2023/04/15 10:39:38;;;;;;;5.32;2.92;;;;;;;19.94;41.78;100069.50;4936919;28;20183;-82
2023/04/15 10:42:16;;;;;;;9.43;3.40;;;;;;;19.88;41.59;100065.81;4953650;28;20082;-84
2023/04/15 10:44:57;;;;;;;8.75;2.53;;;;;;;20.05;41.90;100072.38;4936642;28;20042;-83
2023/04/15 10:47:32;;;;;;;10.98;3.42;;;;;;;20.18;41.28;100070.69;4942208;28;20050;-84
2023/04/15 10:50:30;;;;;;;4.78;2.53;;;;;;;20.33;41.16;100051.56;4905708;28;20047;-83
2023/04/15 10:53:02;;;;;;;7.32;2.75;;;;;;;20.26;39.90;100030.84;4913974;28;20047;-83
2023/04/15 10:55:41;;;;;;;9.85;2.75;;;;;;;20.31;40.25;100032.06;4931964;28;20218;-83
2023/04/15 10:58:20;;;;;;;7.78;2.67;;;;;;;20.45;40.45;100033.66;4965720;28;20512;-82
2023/04/15 11:00:53;;;;;;;4.53;3.03;;;;;;;20.13;40.27;99943.84;4945098;28;20654;-83
2023/04/15 11:03:45;;;;;;;9.85;3.60;;;;;;;21.25;39.04;100062.88;4945919;28;20501;-83
2023/04/15 11:06:15;;;;;;;;;;;;;;;21.33;38.67;100073.38;4938613;28;20817;-83
2023/04/15 11:09:04;;;;;;;5.55;2.90;;;;;;;21.38;38.70;100067.34;4946214;28;19921;-83
2023/04/15 11:12:10;;;;;;;5.72;3.13;;;;;;;21.51;38.26;100065.38;4946951;28;20086;-83
2023/04/15 11:14:42;;;;;;;7.60;3.38;;;;;;;21.34;38.65;100034.56;4960258;28;20051;-83
2023/04/15 11:17:09;;;;;;;9.82;2.88;;;;;;;21.47;39.01;100034.47;4972150;28;20329;-82
2023/04/15 11:19:39;;;;;;;10.68;3.63;;;;;;;21.59;38.48;100037.25;4961801;28;20508;-84
2023/04/15 11:22:10;;;;;;;9.00;4.47;;;;;;;21.81;37.98;100061.16;4972631;28;20077;-84
2023/04/15 11:24:50;;;;;;;6.00;2.75;;;;;;;21.95;37.23;100044.59;4947669;28;20059;-82
2023/04/15 11:27:23;;;;;;;7.25;2.88;;;;;;;22.23;36.77;100064.88;4946334;28;20047;-83
2023/04/15 11:29:55;;;;;;;3.97;2.15;;;;;;;22.21;37.33;100058.91;4950322;28;20140;-81
2023/04/15 11:32:22;;;;;;;8.60;3.97;;;;;;;22.20;36.81;100062.63;4952144;28;20136;-82
2023/04/15 11:34:53;;;;;;;6.93;2.47;;;;;;;22.19;37.16;100060.97;4965941;28;20051;-82
2023/04/15 11:37:31;;;;;;;10.90;3.00;;;;;;;22.09;36.83;100029.06;4941028;28;20125;-82
2023/04/15 11:40:05;;;;;;;5.00;2.65;;;;;;;22.18;36.61;100053.88;4951993;28;20058;-83
2023/04/15 11:42:34;;;;;;;6.03;2.33;;;;;;;21.97;36.34;99998.44;4957061;28;20416;-82
2023/04/15 11:45:15;;;;;;;6.60;2.40;;;;;;;22.55;35.94;100053.88;4959234;28;20050;-83
2023/04/15 11:47:42;;;;;;;5.80;2.33;;;;;;;22.68;35.81;100023.94;4964711;28;20066;-83
2023/04/15 11:50:28;;;;;;;9.10;2.08;;;;;;;22.98;35.19;100037.47;4944739;28;20458;-81
2023/04/15 11:53:03;;;;;;;4.53;2.10;;;;;;;22.91;35.18;100025.06;4947397;28;20054;-84
2023/04/15 11:55:48;;;;;;;5.90;2.40;;;;;;;22.88;34.91;100009.28;4933625;28;20427;-81
2023/04/15 11:58:23;;;;;;;7.50;2.50;;;;;;;22.96;34.66;99998.97;4954577;28;20074;-83
2023/04/15 12:00:57;;;;;;;6.20;2.13;;;;;;;23.30;34.22;100049.88;4960849;28;20053;-83
2023/04/15 12:03:28;;;;;;;10.10;2.67;;;;;;;23.40;33.97;100002.22;4937676;28;20058;-83